sensor_id;sensor_type;location;lat;lon;timestamp;temperature;humidity
3713;DHT22;1872;51.406;6.856;2022-08-25T00:01:22;23.10;79.60
3713;DHT22;1872;51.406;6.856;2022-08-25T00:03:48;23.10;79.70
3713;DHT22;1872;51.406;6.856;2022-08-25T00:06:14;23.00;79.70
3713;DHT22;1872;51.406;6.856;2022-08-25T00:08:41;23.00;79.80
3713;DHT22;1872;51.406;6.856;2022-08-25T00:11:10;22.90;79.80
3713;DHT22;1872;51.406;6.856;2022-08-25T00:13:42;22.90;79.70
3713;DHT22;1872;51.406;6.856;2022-08-25T00:16:12;22.80;79.80
3713;DHT22;1872;51.406;6.856;2022-08-25T00:18:40;22.70;80.00
3713;DHT22;1872;51.406;6.856;2022-08-25T00:21:06;22.70;80.30
3713;DHT22;1872;51.406;6.856;2022-08-25T00:23:32;22.60;80.30
3713;DHT22;1872;51.406;6.856;2022-08-25T00:25:58;22.60;80.50
3713;DHT22;1872;51.406;6.856;2022-08-25T00:28:24;22.50;80.60
3713;DHT22;1872;51.406;6.856;2022-08-25T00:30:50;22.50;80.70
3713;DHT22;1872;51.406;6.856;2022-08-25T00:33:16;22.50;80.80
3713;DHT22;1872;51.406;6.856;2022-08-25T00:35:43;22.50;80.90
3713;DHT22;1872;51.406;6.856;2022-08-25T00:38:11;22.40;80.90
3713;DHT22;1872;51.406;6.856;2022-08-25T00:40:40;22.40;80.90
3713;DHT22;1872;51.406;6.856;2022-08-25T00:43:06;22.40;81.00
3713;DHT22;1872;51.406;6.856;2022-08-25T00:45:34;22.40;81.10
3713;DHT22;1872;51.406;6.856;2022-08-25T00:48:00;22.40;81.20
3713;DHT22;1872;51.406;6.856;2022-08-25T00:50:27;22.30;81.50
3713;DHT22;1872;51.406;6.856;2022-08-25T00:52:55;22.30;81.40
3713;DHT22;1872;51.406;6.856;2022-08-25T00:55:28;22.20;81.50
3713;DHT22;1872;51.406;6.856;2022-08-25T00:57:57;22.20;81.50
3713;DHT22;1872;51.406;6.856;2022-08-25T01:00:34;22.10;81.60
3713;DHT22;1872;51.406;6.856;2022-08-25T01:03:00;22.10;81.50
3713;DHT22;1872;51.406;6.856;2022-08-25T01:05:27;22.20;81.50
3713;DHT22;1872;51.406;6.856;2022-08-25T01:07:54;22.20;81.50
3713;DHT22;1872;51.406;6.856;2022-08-25T01:10:21;22.10;81.60
3713;DHT22;1872;51.406;6.856;2022-08-25T01:12:47;22.10;81.70
3713;DHT22;1872;51.406;6.856;2022-08-25T01:15:15;22.10;81.80
3713;DHT22;1872;51.406;6.856;2022-08-25T01:17:47;22.00;81.80
3713;DHT22;1872;51.406;6.856;2022-08-25T01:20:14;22.00;81.80
3713;DHT22;1872;51.406;6.856;2022-08-25T01:22:41;22.00;81.80
3713;DHT22;1872;51.406;6.856;2022-08-25T01:26:03;22.00;81.80
3713;DHT22;1872;51.406;6.856;2022-08-25T01:28:02;22.00;82.00
3713;DHT22;1872;51.406;6.856;2022-08-25T01:30:28;21.90;81.90
3713;DHT22;1872;51.406;6.856;2022-08-25T01:32:54;21.90;82.00
3713;DHT22;1872;51.406;6.856;2022-08-25T01:35:20;21.90;82.00
3713;DHT22;1872;51.406;6.856;2022-08-25T01:37:45;21.80;81.80
3713;DHT22;1872;51.406;6.856;2022-08-25T01:40:12;21.80;81.90
3713;DHT22;1872;51.406;6.856;2022-08-25T01:42:42;21.70;81.90
3713;DHT22;1872;51.406;6.856;2022-08-25T01:45:11;21.70;82.00
3713;DHT22;1872;51.406;6.856;2022-08-25T01:47:37;21.60;82.10
3713;DHT22;1872;51.406;6.856;2022-08-25T01:50:05;21.60;82.30
3713;DHT22;1872;51.406;6.856;2022-08-25T01:52:59;21.50;82.50
3713;DHT22;1872;51.406;6.856;2022-08-25T01:55:27;21.40;82.70
3713;DHT22;1872;51.406;6.856;2022-08-25T01:57:53;21.40;82.70
3713;DHT22;1872;51.406;6.856;2022-08-25T02:00:21;21.30;82.70
3713;DHT22;1872;51.406;6.856;2022-08-25T02:02:47;21.30;83.00
3713;DHT22;1872;51.406;6.856;2022-08-25T02:05:14;21.20;83.20
3713;DHT22;1872;51.406;6.856;2022-08-25T02:07:41;21.20;83.40
3713;DHT22;1872;51.406;6.856;2022-08-25T02:10:09;21.10;83.40
3713;DHT22;1872;51.406;6.856;2022-08-25T02:12:35;21.10;83.50
3713;DHT22;1872;51.406;6.856;2022-08-25T02:15:07;21.10;83.50
3713;DHT22;1872;51.406;6.856;2022-08-25T02:17:34;21.00;83.50
3713;DHT22;1872;51.406;6.856;2022-08-25T02:20:03;21.00;83.70
3713;DHT22;1872;51.406;6.856;2022-08-25T02:22:28;21.00;83.70
3713;DHT22;1872;51.406;6.856;2022-08-25T02:24:54;21.00;83.60
3713;DHT22;1872;51.406;6.856;2022-08-25T02:27:20;21.00;83.60
3713;DHT22;1872;51.406;6.856;2022-08-25T02:29:47;21.00;83.50
3713;DHT22;1872;51.406;6.856;2022-08-25T02:32:13;21.00;83.50
3713;DHT22;1872;51.406;6.856;2022-08-25T02:34:39;21.10;83.70
3713;DHT22;1872;51.406;6.856;2022-08-25T02:37:06;21.00;83.70
3713;DHT22;1872;51.406;6.856;2022-08-25T02:39:32;20.90;83.90
3713;DHT22;1872;51.406;6.856;2022-08-25T02:41:58;20.90;83.90
3713;DHT22;1872;51.406;6.856;2022-08-25T02:44:24;20.90;84.10
3713;DHT22;1872;51.406;6.856;2022-08-25T02:46:49;20.80;84.10
3713;DHT22;1872;51.406;6.856;2022-08-25T02:49:15;20.80;84.20
3713;DHT22;1872;51.406;6.856;2022-08-25T02:51:41;20.80;84.30
3713;DHT22;1872;51.406;6.856;2022-08-25T02:54:07;20.80;84.40
3713;DHT22;1872;51.406;6.856;2022-08-25T02:56:33;20.70;84.30
3713;DHT22;1872;51.406;6.856;2022-08-25T02:59:00;20.70;84.40
3713;DHT22;1872;51.406;6.856;2022-08-25T03:01:26;20.70;84.50
3713;DHT22;1872;51.406;6.856;2022-08-25T03:03:53;20.60;84.50
3713;DHT22;1872;51.406;6.856;2022-08-25T03:06:20;20.60;84.70
3713;DHT22;1872;51.406;6.856;2022-08-25T03:08:48;20.50;84.70
3713;DHT22;1872;51.406;6.856;2022-08-25T03:11:14;20.50;84.90
3713;DHT22;1872;51.406;6.856;2022-08-25T03:13:40;20.50;85.00
3713;DHT22;1872;51.406;6.856;2022-08-25T03:16:07;20.50;85.20
3713;DHT22;1872;51.406;6.856;2022-08-25T03:18:33;20.40;85.20
3713;DHT22;1872;51.406;6.856;2022-08-25T03:20:59;20.40;85.20
3713;DHT22;1872;51.406;6.856;2022-08-25T03:23:25;20.30;85.20
3713;DHT22;1872;51.406;6.856;2022-08-25T03:25:55;20.40;85.20
3713;DHT22;1872;51.406;6.856;2022-08-25T03:28:40;20.40;85.30
3713;DHT22;1872;51.406;6.856;2022-08-25T03:31:06;20.30;85.20
3713;DHT22;1872;51.406;6.856;2022-08-25T03:33:33;20.30;85.20
3713;DHT22;1872;51.406;6.856;2022-08-25T03:35:59;20.30;85.30
3713;DHT22;1872;51.406;6.856;2022-08-25T03:38:26;20.30;85.40
3713;DHT22;1872;51.406;6.856;2022-08-25T03:40:52;20.20;85.40
3713;DHT22;1872;51.406;6.856;2022-08-25T03:43:19;20.20;85.50
3713;DHT22;1872;51.406;6.856;2022-08-25T03:45:45;20.20;85.60
3713;DHT22;1872;51.406;6.856;2022-08-25T03:48:13;20.20;85.80
3713;DHT22;1872;51.406;6.856;2022-08-25T03:50:49;20.20;86.00
3713;DHT22;1872;51.406;6.856;2022-08-25T03:53:16;20.10;86.20
3713;DHT22;1872;51.406;6.856;2022-08-25T03:55:42;20.00;86.20
3713;DHT22;1872;51.406;6.856;2022-08-25T03:58:07;20.00;86.40
3713;DHT22;1872;51.406;6.856;2022-08-25T04:00:34;20.00;86.60
3713;DHT22;1872;51.406;6.856;2022-08-25T04:02:59;20.00;86.70
3713;DHT22;1872;51.406;6.856;2022-08-25T04:05:25;19.90;86.80
3713;DHT22;1872;51.406;6.856;2022-08-25T04:07:51;19.90;87.10
3713;DHT22;1872;51.406;6.856;2022-08-25T04:10:17;19.80;87.20
3713;DHT22;1872;51.406;6.856;2022-08-25T04:12:42;19.80;87.20
3713;DHT22;1872;51.406;6.856;2022-08-25T04:15:08;19.80;87.40
3713;DHT22;1872;51.406;6.856;2022-08-25T04:17:39;19.80;87.40
3713;DHT22;1872;51.406;6.856;2022-08-25T04:20:06;19.80;87.60
3713;DHT22;1872;51.406;6.856;2022-08-25T04:22:33;19.80;87.50
3713;DHT22;1872;51.406;6.856;2022-08-25T04:24:59;19.80;87.50
3713;DHT22;1872;51.406;6.856;2022-08-25T04:27:24;19.80;87.70
3713;DHT22;1872;51.406;6.856;2022-08-25T04:29:52;19.80;87.90
3713;DHT22;1872;51.406;6.856;2022-08-25T04:32:18;19.80;88.00
3713;DHT22;1872;51.406;6.856;2022-08-25T04:34:44;19.80;88.10
3713;DHT22;1872;51.406;6.856;2022-08-25T04:37:10;19.70;88.20
3713;DHT22;1872;51.406;6.856;2022-08-25T04:39:35;19.70;88.40
3713;DHT22;1872;51.406;6.856;2022-08-25T04:42:01;19.70;88.60
3713;DHT22;1872;51.406;6.856;2022-08-25T04:44:28;19.70;88.70
3713;DHT22;1872;51.406;6.856;2022-08-25T04:46:54;19.60;88.80
3713;DHT22;1872;51.406;6.856;2022-08-25T04:49:20;19.60;89.00
3713;DHT22;1872;51.406;6.856;2022-08-25T04:51:47;19.60;89.20
3713;DHT22;1872;51.406;6.856;2022-08-25T04:54:14;19.60;89.30
3713;DHT22;1872;51.406;6.856;2022-08-25T04:56:47;19.60;89.50
3713;DHT22;1872;51.406;6.856;2022-08-25T04:59:14;19.60;89.60
3713;DHT22;1872;51.406;6.856;2022-08-25T05:01:41;19.60;89.70
3713;DHT22;1872;51.406;6.856;2022-08-25T05:04:08;19.60;89.80
3713;DHT22;1872;51.406;6.856;2022-08-25T05:06:35;19.60;90.00
3713;DHT22;1872;51.406;6.856;2022-08-25T05:09:02;19.60;90.00
3713;DHT22;1872;51.406;6.856;2022-08-25T05:11:28;19.60;90.10
3713;DHT22;1872;51.406;6.856;2022-08-25T05:13:56;19.60;90.20
3713;DHT22;1872;51.406;6.856;2022-08-25T05:16:23;19.60;90.30
3713;DHT22;1872;51.406;6.856;2022-08-25T05:18:53;19.60;90.30
3713;DHT22;1872;51.406;6.856;2022-08-25T05:21:25;19.60;90.40
3713;DHT22;1872;51.406;6.856;2022-08-25T05:23:56;19.60;90.50
3713;DHT22;1872;51.406;6.856;2022-08-25T05:26:26;19.70;90.60
3713;DHT22;1872;51.406;6.856;2022-08-25T05:28:55;19.70;90.60
3713;DHT22;1872;51.406;6.856;2022-08-25T05:31:29;19.70;90.80
3713;DHT22;1872;51.406;6.856;2022-08-25T05:33:57;19.70;90.90
3713;DHT22;1872;51.406;6.856;2022-08-25T05:36:25;19.70;90.90
3713;DHT22;1872;51.406;6.856;2022-08-25T05:38:51;19.80;91.10
3713;DHT22;1872;51.406;6.856;2022-08-25T05:41:21;19.80;91.20
3713;DHT22;1872;51.406;6.856;2022-08-25T05:43:48;19.80;91.20
3713;DHT22;1872;51.406;6.856;2022-08-25T05:46:18;19.80;91.30
3713;DHT22;1872;51.406;6.856;2022-08-25T05:48:44;19.80;91.50
3713;DHT22;1872;51.406;6.856;2022-08-25T05:51:17;19.90;91.60
3713;DHT22;1872;51.406;6.856;2022-08-25T05:53:45;19.90;91.80
3713;DHT22;1872;51.406;6.856;2022-08-25T05:56:11;20.00;92.00
3713;DHT22;1872;51.406;6.856;2022-08-25T05:58:39;20.10;92.00
3713;DHT22;1872;51.406;6.856;2022-08-25T06:01:05;20.20;92.00
3713;DHT22;1872;51.406;6.856;2022-08-25T06:03:50;20.30;92.00
3713;DHT22;1872;51.406;6.856;2022-08-25T06:06:21;20.50;92.00
3713;DHT22;1872;51.406;6.856;2022-08-25T06:08:47;20.70;92.00
3713;DHT22;1872;51.406;6.856;2022-08-25T06:11:13;20.90;91.90
3713;DHT22;1872;51.406;6.856;2022-08-25T06:13:39;21.10;91.80
3713;DHT22;1872;51.406;6.856;2022-08-25T06:16:05;21.30;91.80
3713;DHT22;1872;51.406;6.856;2022-08-25T06:18:31;21.50;91.90
3713;DHT22;1872;51.406;6.856;2022-08-25T06:20:57;21.70;91.80
3713;DHT22;1872;51.406;6.856;2022-08-25T06:23:22;21.90;91.90
3713;DHT22;1872;51.406;6.856;2022-08-25T06:25:52;22.10;91.90
3713;DHT22;1872;51.406;6.856;2022-08-25T06:28:19;22.50;92.00
3713;DHT22;1872;51.406;6.856;2022-08-25T06:30:46;22.80;92.10
3713;DHT22;1872;51.406;6.856;2022-08-25T06:33:12;23.30;92.10
3713;DHT22;1872;51.406;6.856;2022-08-25T06:35:42;23.80;92.10
3713;DHT22;1872;51.406;6.856;2022-08-25T06:38:09;24.50;91.70
3713;DHT22;1872;51.406;6.856;2022-08-25T06:40:35;25.10;91.50
3713;DHT22;1872;51.406;6.856;2022-08-25T06:43:02;25.70;91.00
3713;DHT22;1872;51.406;6.856;2022-08-25T06:45:32;26.10;90.60
3713;DHT22;1872;51.406;6.856;2022-08-25T06:47:57;26.30;90.50
3713;DHT22;1872;51.406;6.856;2022-08-25T06:50:24;26.70;90.20
3713;DHT22;1872;51.406;6.856;2022-08-25T06:52:49;26.90;89.70
3713;DHT22;1872;51.406;6.856;2022-08-25T06:55:16;27.00;89.40
3713;DHT22;1872;51.406;6.856;2022-08-25T06:57:41;27.20;88.80
3713;DHT22;1872;51.406;6.856;2022-08-25T07:00:08;27.40;87.40
3713;DHT22;1872;51.406;6.856;2022-08-25T07:02:35;27.70;86.40
3713;DHT22;1872;51.406;6.856;2022-08-25T07:05:03;28.00;85.60
3713;DHT22;1872;51.406;6.856;2022-08-25T07:07:29;28.40;84.60
3713;DHT22;1872;51.406;6.856;2022-08-25T07:09:55;28.60;83.70
3713;DHT22;1872;51.406;6.856;2022-08-25T07:12:21;28.70;83.10
3713;DHT22;1872;51.406;6.856;2022-08-25T07:14:49;28.70;83.30
3713;DHT22;1872;51.406;6.856;2022-08-25T07:17:14;28.80;82.10
3713;DHT22;1872;51.406;6.856;2022-08-25T07:19:40;28.90;80.90
3713;DHT22;1872;51.406;6.856;2022-08-25T07:22:06;28.80;80.60
3713;DHT22;1872;51.406;6.856;2022-08-25T07:24:32;28.80;81.00
3713;DHT22;1872;51.406;6.856;2022-08-25T07:26:57;29.00;80.90
3713;DHT22;1872;51.406;6.856;2022-08-25T07:29:25;29.40;80.20
3713;DHT22;1872;51.406;6.856;2022-08-25T07:31:53;29.60;79.60
3713;DHT22;1872;51.406;6.856;2022-08-25T07:34:19;29.90;79.10
3713;DHT22;1872;51.406;6.856;2022-08-25T07:37:03;30.20;78.30
3713;DHT22;1872;51.406;6.856;2022-08-25T07:39:30;30.30;77.90
3713;DHT22;1872;51.406;6.856;2022-08-25T07:41:57;30.50;77.00
3713;DHT22;1872;51.406;6.856;2022-08-25T07:44:23;30.60;76.50
3713;DHT22;1872;51.406;6.856;2022-08-25T07:46:50;30.60;76.20
3713;DHT22;1872;51.406;6.856;2022-08-25T07:49:20;30.60;75.40
3713;DHT22;1872;51.406;6.856;2022-08-25T07:51:46;30.60;75.40
3713;DHT22;1872;51.406;6.856;2022-08-25T07:54:11;30.80;75.10
3713;DHT22;1872;51.406;6.856;2022-08-25T07:56:37;31.00;74.70
3713;DHT22;1872;51.406;6.856;2022-08-25T07:59:06;31.10;74.20
3713;DHT22;1872;51.406;6.856;2022-08-25T08:01:32;31.30;74.10
3713;DHT22;1872;51.406;6.856;2022-08-25T08:03:58;31.40;73.70
3713;DHT22;1872;51.406;6.856;2022-08-25T08:06:24;31.30;73.30
3713;DHT22;1872;51.406;6.856;2022-08-25T08:08:51;31.20;72.90
3713;DHT22;1872;51.406;6.856;2022-08-25T08:11:31;31.30;73.10
3713;DHT22;1872;51.406;6.856;2022-08-25T08:14:06;31.60;72.60
3713;DHT22;1872;51.406;6.856;2022-08-25T08:16:34;31.80;71.90
3713;DHT22;1872;51.406;6.856;2022-08-25T08:19:04;31.90;70.60
3713;DHT22;1872;51.406;6.856;2022-08-25T08:21:34;32.00;70.50
3713;DHT22;1872;51.406;6.856;2022-08-25T08:24:00;32.00;70.50
3713;DHT22;1872;51.406;6.856;2022-08-25T08:26:32;32.10;70.00
3713;DHT22;1872;51.406;6.856;2022-08-25T08:28:59;32.20;69.10
3713;DHT22;1872;51.406;6.856;2022-08-25T08:31:26;32.30;68.50
3713;DHT22;1872;51.406;6.856;2022-08-25T08:33:54;32.30;67.90
3713;DHT22;1872;51.406;6.856;2022-08-25T08:36:21;32.40;67.70
3713;DHT22;1872;51.406;6.856;2022-08-25T08:38:51;32.50;67.40
3713;DHT22;1872;51.406;6.856;2022-08-25T08:50:10;32.40;65.70
3713;DHT22;1872;51.406;6.856;2022-08-25T08:55:50;32.30;64.80
3713;DHT22;1872;51.406;6.856;2022-08-25T08:58:22;32.20;64.70
3713;DHT22;1872;51.406;6.856;2022-08-25T09:00:53;32.10;64.70
3713;DHT22;1872;51.406;6.856;2022-08-25T09:03:40;32.10;64.40
3713;DHT22;1872;51.406;6.856;2022-08-25T09:06:11;31.80;64.10
3713;DHT22;1872;51.406;6.856;2022-08-25T09:08:40;31.70;64.40
3713;DHT22;1872;51.406;6.856;2022-08-25T09:11:26;31.50;64.20
3713;DHT22;1872;51.406;6.856;2022-08-25T09:17:02;31.30;64.40
3713;DHT22;1872;51.406;6.856;2022-08-25T09:27:36;30.80;64.90
3713;DHT22;1872;51.406;6.856;2022-08-25T09:32:42;30.60;65.30
3713;DHT22;1872;51.406;6.856;2022-08-25T09:35:20;30.50;65.70
3713;DHT22;1872;51.406;6.856;2022-08-25T09:38:00;30.40;65.80
3713;DHT22;1872;51.406;6.856;2022-08-25T09:40:29;30.30;65.90
3713;DHT22;1872;51.406;6.856;2022-08-25T09:42:58;30.10;66.10
3713;DHT22;1872;51.406;6.856;2022-08-25T09:45:41;30.10;66.40
3713;DHT22;1872;51.406;6.856;2022-08-25T09:48:31;30.10;66.80
3713;DHT22;1872;51.406;6.856;2022-08-25T09:56:32;29.80;67.60
3713;DHT22;1872;51.406;6.856;2022-08-25T09:59:50;29.80;67.80
3713;DHT22;1872;51.406;6.856;2022-08-25T10:02:26;29.70;68.60
3713;DHT22;1872;51.406;6.856;2022-08-25T10:04:55;29.60;68.20
3713;DHT22;1872;51.406;6.856;2022-08-25T10:07:36;29.60;68.50
3713;DHT22;1872;51.406;6.856;2022-08-25T10:10:28;29.60;68.60
3713;DHT22;1872;51.406;6.856;2022-08-25T10:12:55;29.60;68.20
3713;DHT22;1872;51.406;6.856;2022-08-25T10:15:35;29.50;68.10
3713;DHT22;1872;51.406;6.856;2022-08-25T10:18:26;29.50;68.00
3713;DHT22;1872;51.406;6.856;2022-08-25T10:21:09;29.60;68.40
3713;DHT22;1872;51.406;6.856;2022-08-25T10:23:49;29.60;68.00
3713;DHT22;1872;51.406;6.856;2022-08-25T10:32:59;29.70;68.20
3713;DHT22;1872;51.406;6.856;2022-08-25T10:35:08;29.70;68.30
3713;DHT22;1872;51.406;6.856;2022-08-25T10:45:47;29.50;68.50
3713;DHT22;1872;51.406;6.856;2022-08-25T10:54:03;29.50;67.70
3713;DHT22;1872;51.406;6.856;2022-08-25T10:56:46;29.60;67.20
3713;DHT22;1872;51.406;6.856;2022-08-25T11:04:45;29.60;66.70
3713;DHT22;1872;51.406;6.856;2022-08-25T11:07:25;29.60;66.50
3713;DHT22;1872;51.406;6.856;2022-08-25T11:09:59;29.50;67.20
3713;DHT22;1872;51.406;6.856;2022-08-25T11:12:33;29.50;67.30
3713;DHT22;1872;51.406;6.856;2022-08-25T11:15:27;29.50;67.40
3713;DHT22;1872;51.406;6.856;2022-08-25T11:17:58;29.50;68.10
3713;DHT22;1872;51.406;6.856;2022-08-25T11:26:05;29.60;67.80
3713;DHT22;1872;51.406;6.856;2022-08-25T11:28:42;29.60;67.00
3713;DHT22;1872;51.406;6.856;2022-08-25T11:31:13;29.70;66.60
3713;DHT22;1872;51.406;6.856;2022-08-25T11:33:39;29.70;66.90
3713;DHT22;1872;51.406;6.856;2022-08-25T11:44:47;29.70;68.00
3713;DHT22;1872;51.406;6.856;2022-08-25T11:47:33;29.60;68.20
3713;DHT22;1872;51.406;6.856;2022-08-25T11:53:25;29.60;67.10
3713;DHT22;1872;51.406;6.856;2022-08-25T11:55:54;29.60;67.40
3713;DHT22;1872;51.406;6.856;2022-08-25T11:58:29;29.50;67.60
3713;DHT22;1872;51.406;6.856;2022-08-25T12:01:00;29.50;67.70
3713;DHT22;1872;51.406;6.856;2022-08-25T12:06:27;29.60;67.00
3713;DHT22;1872;51.406;6.856;2022-08-25T12:27:24;29.80;66.40
3713;DHT22;1872;51.406;6.856;2022-08-25T12:35:26;29.40;67.30
3713;DHT22;1872;51.406;6.856;2022-08-25T12:38:07;29.50;68.30
3713;DHT22;1872;51.406;6.856;2022-08-25T12:45:50;29.60;66.90
3713;DHT22;1872;51.406;6.856;2022-08-25T12:51:19;29.70;65.70
3713;DHT22;1872;51.406;6.856;2022-08-25T12:56:41;29.70;65.00
3713;DHT22;1872;51.406;6.856;2022-08-25T12:59:21;29.80;64.60
3713;DHT22;1872;51.406;6.856;2022-08-25T13:04:46;29.80;63.80
3713;DHT22;1872;51.406;6.856;2022-08-25T13:07:32;29.90;63.30
3713;DHT22;1872;51.406;6.856;2022-08-25T13:10:14;29.90;64.30
3713;DHT22;1872;51.406;6.856;2022-08-25T13:15:38;29.90;62.60
3713;DHT22;1872;51.406;6.856;2022-08-25T13:18:17;29.90;62.30
3713;DHT22;1872;51.406;6.856;2022-08-25T13:20:49;29.90;62.70
3713;DHT22;1872;51.406;6.856;2022-08-25T13:23:24;30.00;62.70
3713;DHT22;1872;51.406;6.856;2022-08-25T13:25:52;30.00;62.30
3713;DHT22;1872;51.406;6.856;2022-08-25T13:28:28;30.00;62.50
3713;DHT22;1872;51.406;6.856;2022-08-25T13:31:12;30.10;62.10
3713;DHT22;1872;51.406;6.856;2022-08-25T13:33:59;30.10;61.50
3713;DHT22;1872;51.406;6.856;2022-08-25T13:36:31;30.20;61.20
3713;DHT22;1872;51.406;6.856;2022-08-25T13:39:23;30.20;61.20
3713;DHT22;1872;51.406;6.856;2022-08-25T13:41:53;30.10;61.00
3713;DHT22;1872;51.406;6.856;2022-08-25T13:44:21;30.10;61.00
3713;DHT22;1872;51.406;6.856;2022-08-25T13:47:38;30.10;61.10
3713;DHT22;1872;51.406;6.856;2022-08-25T13:55:52;30.40;60.40
3713;DHT22;1872;51.406;6.856;2022-08-25T13:58:30;30.40;61.10
3713;DHT22;1872;51.406;6.856;2022-08-25T14:01:02;30.20;61.40
3713;DHT22;1872;51.406;6.856;2022-08-25T14:03:37;30.20;61.20
3713;DHT22;1872;51.406;6.856;2022-08-25T14:06:29;30.20;60.80
3713;DHT22;1872;51.406;6.856;2022-08-25T14:11:31;30.20;60.80
3713;DHT22;1872;51.406;6.856;2022-08-25T14:14:48;30.30;60.60
3713;DHT22;1872;51.406;6.856;2022-08-25T14:16:59;30.40;60.30
3713;DHT22;1872;51.406;6.856;2022-08-25T14:19:26;30.40;59.80
3713;DHT22;1872;51.406;6.856;2022-08-25T14:21:53;30.50;59.60
3713;DHT22;1872;51.406;6.856;2022-08-25T14:24:21;30.50;60.70
3713;DHT22;1872;51.406;6.856;2022-08-25T14:26:48;30.40;60.00
3713;DHT22;1872;51.406;6.856;2022-08-25T14:29:15;30.50;59.60
3713;DHT22;1872;51.406;6.856;2022-08-25T14:31:45;30.60;59.20
3713;DHT22;1872;51.406;6.856;2022-08-25T14:34:20;30.50;59.00
3713;DHT22;1872;51.406;6.856;2022-08-25T14:36:47;30.50;58.90
3713;DHT22;1872;51.406;6.856;2022-08-25T14:39:13;30.50;59.00
3713;DHT22;1872;51.406;6.856;2022-08-25T14:41:41;30.30;59.10
3713;DHT22;1872;51.406;6.856;2022-08-25T14:44:08;30.30;60.50
3713;DHT22;1872;51.406;6.856;2022-08-25T14:46:37;30.30;59.50
3713;DHT22;1872;51.406;6.856;2022-08-25T14:49:08;30.20;59.40
3713;DHT22;1872;51.406;6.856;2022-08-25T14:51:38;30.20;59.30
3713;DHT22;1872;51.406;6.856;2022-08-25T14:54:10;30.20;59.00
3713;DHT22;1872;51.406;6.856;2022-08-25T14:56:37;30.20;58.90
3713;DHT22;1872;51.406;6.856;2022-08-25T14:59:03;30.10;59.20
3713;DHT22;1872;51.406;6.856;2022-08-25T15:01:29;30.10;59.20
3713;DHT22;1872;51.406;6.856;2022-08-25T15:04:02;30.10;58.90
3713;DHT22;1872;51.406;6.856;2022-08-25T15:06:30;30.10;58.50
3713;DHT22;1872;51.406;6.856;2022-08-25T15:08:57;30.20;58.30
3713;DHT22;1872;51.406;6.856;2022-08-25T15:11:33;30.20;58.30
3713;DHT22;1872;51.406;6.856;2022-08-25T15:13:59;30.30;56.70
3713;DHT22;1872;51.406;6.856;2022-08-25T15:16:38;30.40;57.30
3713;DHT22;1872;51.406;6.856;2022-08-25T15:19:06;30.30;59.10
3713;DHT22;1872;51.406;6.856;2022-08-25T15:21:34;30.30;59.10
3713;DHT22;1872;51.406;6.856;2022-08-25T15:24:00;30.30;59.70
3713;DHT22;1872;51.406;6.856;2022-08-25T15:26:26;30.30;60.00
3713;DHT22;1872;51.406;6.856;2022-08-25T15:28:52;30.20;59.70
3713;DHT22;1872;51.406;6.856;2022-08-25T15:31:19;30.30;59.20
3713;DHT22;1872;51.406;6.856;2022-08-25T15:33:45;30.30;58.80
3713;DHT22;1872;51.406;6.856;2022-08-25T15:36:14;30.30;57.20
3713;DHT22;1872;51.406;6.856;2022-08-25T15:38:43;30.30;57.30
3713;DHT22;1872;51.406;6.856;2022-08-25T15:41:10;30.30;57.30
3713;DHT22;1872;51.406;6.856;2022-08-25T15:43:36;30.30;57.40
3713;DHT22;1872;51.406;6.856;2022-08-25T15:46:04;30.40;57.50
3713;DHT22;1872;51.406;6.856;2022-08-25T15:48:32;30.40;57.50
3713;DHT22;1872;51.406;6.856;2022-08-25T15:50:59;30.50;57.90
3713;DHT22;1872;51.406;6.856;2022-08-25T15:53:27;30.40;58.40
3713;DHT22;1872;51.406;6.856;2022-08-25T15:55:54;30.30;58.00
3713;DHT22;1872;51.406;6.856;2022-08-25T15:58:22;30.30;58.50
3713;DHT22;1872;51.406;6.856;2022-08-25T16:00:48;30.30;59.50
3713;DHT22;1872;51.406;6.856;2022-08-25T16:03:14;30.30;59.50
3713;DHT22;1872;51.406;6.856;2022-08-25T16:05:41;30.20;59.20
3713;DHT22;1872;51.406;6.856;2022-08-25T16:08:07;30.30;59.30
3713;DHT22;1872;51.406;6.856;2022-08-25T16:10:34;30.20;59.40
3713;DHT22;1872;51.406;6.856;2022-08-25T16:13:02;30.20;58.60
3713;DHT22;1872;51.406;6.856;2022-08-25T16:15:29;30.30;58.20
3713;DHT22;1872;51.406;6.856;2022-08-25T16:17:57;30.30;57.80
3713;DHT22;1872;51.406;6.856;2022-08-25T16:20:28;30.40;57.60
3713;DHT22;1872;51.406;6.856;2022-08-25T16:22:54;30.40;57.50
3713;DHT22;1872;51.406;6.856;2022-08-25T16:25:20;30.40;57.30
3713;DHT22;1872;51.406;6.856;2022-08-25T16:27:47;30.40;57.00
3713;DHT22;1872;51.406;6.856;2022-08-25T16:30:13;30.50;57.20
3713;DHT22;1872;51.406;6.856;2022-08-25T16:32:39;30.50;56.90
3713;DHT22;1872;51.406;6.856;2022-08-25T16:35:06;30.50;57.20
3713;DHT22;1872;51.406;6.856;2022-08-25T16:37:34;30.40;57.90
3713;DHT22;1872;51.406;6.856;2022-08-25T16:40:01;30.40;57.30
3713;DHT22;1872;51.406;6.856;2022-08-25T16:42:27;30.40;57.80
3713;DHT22;1872;51.406;6.856;2022-08-25T16:44:53;30.40;58.10
3713;DHT22;1872;51.406;6.856;2022-08-25T16:47:19;30.50;57.50
3713;DHT22;1872;51.406;6.856;2022-08-25T16:49:45;30.50;57.30
3713;DHT22;1872;51.406;6.856;2022-08-25T16:52:12;30.50;57.10
3713;DHT22;1872;51.406;6.856;2022-08-25T16:54:57;30.50;57.00
3713;DHT22;1872;51.406;6.856;2022-08-25T16:57:39;30.50;57.10
3713;DHT22;1872;51.406;6.856;2022-08-25T17:00:09;30.40;57.80
3713;DHT22;1872;51.406;6.856;2022-08-25T17:02:37;30.40;58.00
3713;DHT22;1872;51.406;6.856;2022-08-25T17:05:04;30.40;57.60
3713;DHT22;1872;51.406;6.856;2022-08-25T17:07:31;30.30;58.00
3713;DHT22;1872;51.406;6.856;2022-08-25T17:09:58;30.30;59.10
3713;DHT22;1872;51.406;6.856;2022-08-25T17:12:25;30.20;60.10
3713;DHT22;1872;51.406;6.856;2022-08-25T17:14:51;30.20;60.50
3713;DHT22;1872;51.406;6.856;2022-08-25T17:17:19;30.10;59.70
3713;DHT22;1872;51.406;6.856;2022-08-25T17:19:45;30.10;60.20
3713;DHT22;1872;51.406;6.856;2022-08-25T17:22:11;30.00;60.80
3713;DHT22;1872;51.406;6.856;2022-08-25T17:24:40;29.90;60.40
3713;DHT22;1872;51.406;6.856;2022-08-25T17:27:07;29.90;61.80
3713;DHT22;1872;51.406;6.856;2022-08-25T17:29:33;29.80;62.60
3713;DHT22;1872;51.406;6.856;2022-08-25T17:32:00;29.80;62.10
3713;DHT22;1872;51.406;6.856;2022-08-25T17:34:26;29.70;62.30
3713;DHT22;1872;51.406;6.856;2022-08-25T17:36:52;29.60;63.00
3713;DHT22;1872;51.406;6.856;2022-08-25T17:39:19;29.70;62.20
3713;DHT22;1872;51.406;6.856;2022-08-25T17:41:46;29.70;62.10
3713;DHT22;1872;51.406;6.856;2022-08-25T17:44:12;29.60;62.90
3713;DHT22;1872;51.406;6.856;2022-08-25T17:46:38;29.70;63.30
3713;DHT22;1872;51.406;6.856;2022-08-25T17:49:05;29.60;62.70
3713;DHT22;1872;51.406;6.856;2022-08-25T17:51:31;29.60;62.00
3713;DHT22;1872;51.406;6.856;2022-08-25T17:53:58;29.60;61.60
3713;DHT22;1872;51.406;6.856;2022-08-25T17:56:25;29.60;61.50
3713;DHT22;1872;51.406;6.856;2022-08-25T17:58:51;29.50;62.60
3713;DHT22;1872;51.406;6.856;2022-08-25T18:01:23;29.50;63.70
3713;DHT22;1872;51.406;6.856;2022-08-25T18:03:49;29.30;64.70
3713;DHT22;1872;51.406;6.856;2022-08-25T18:06:16;29.20;65.40
3713;DHT22;1872;51.406;6.856;2022-08-25T18:08:42;29.10;66.40
3713;DHT22;1872;51.406;6.856;2022-08-25T18:11:09;29.10;66.70
3713;DHT22;1872;51.406;6.856;2022-08-25T18:13:34;28.90;66.70
3713;DHT22;1872;51.406;6.856;2022-08-25T18:16:00;28.90;67.30
3713;DHT22;1872;51.406;6.856;2022-08-25T18:18:26;28.80;67.90
3713;DHT22;1872;51.406;6.856;2022-08-25T18:20:51;28.70;68.40
3713;DHT22;1872;51.406;6.856;2022-08-25T18:23:17;28.60;68.60